createdAt,value
2018-09-25T00:01:02.520Z,103048.16
2018-09-25T00:03:36.174Z,103045.20
2018-09-25T00:06:10.014Z,103050.88
2018-09-25T00:08:43.837Z,103052.86
2018-09-25T00:11:17.658Z,103061.55
2018-09-25T00:13:51.429Z,103062.83
2018-09-25T00:16:25.149Z,103064.11
2018-09-25T00:18:58.700Z,103059.70
2018-09-25T00:21:32.508Z,103063.05
2018-09-25T00:24:06.278Z,103057.36
2018-09-25T00:26:39.977Z,103058.13
2018-09-25T00:29:13.742Z,103059.52
2018-09-25T00:31:47.491Z,103058.94
2018-09-25T00:34:21.460Z,103062.55
2018-09-25T00:36:55.251Z,103066.27
2018-09-25T00:39:29.053Z,103070.39
2018-09-25T00:42:02.849Z,103075.50
2018-09-25T00:44:36.377Z,103075.00
2018-09-25T00:47:10.180Z,103068.44
2018-09-25T00:49:43.781Z,103075.40
2018-09-25T00:52:17.507Z,103072.14
2018-09-25T00:54:51.124Z,103069.82
2018-09-25T00:57:25.044Z,103072.66
2018-09-25T00:59:58.769Z,103073.72
2018-09-25T01:02:33.548Z,103077.65
2018-09-25T01:05:07.318Z,103077.54
2018-09-25T01:07:41.158Z,103079.02
2018-09-25T01:10:14.916Z,103071.58
2018-09-25T01:12:48.443Z,103071.88
2018-09-25T01:15:22.025Z,103073.31
2018-09-25T01:17:55.819Z,103074.59
2018-09-25T01:20:29.552Z,103081.16
2018-09-25T01:23:03.211Z,103080.73
2018-09-25T01:25:36.941Z,103083.87
2018-09-25T01:28:10.729Z,103091.11
2018-09-25T01:30:44.534Z,103094.89
2018-09-25T01:33:18.007Z,103092.84
2018-09-25T01:35:51.766Z,103095.97
2018-09-25T01:38:25.452Z,103099.39
2018-09-25T01:40:59.172Z,103094.21
2018-09-25T01:43:32.840Z,103097.73
2018-09-25T01:46:06.612Z,103107.72
2018-09-25T01:48:40.169Z,103099.98
2018-09-25T01:51:13.938Z,103100.61
2018-09-25T01:53:47.456Z,103099.56
2018-09-25T01:56:21.135Z,103097.77
2018-09-25T01:58:54.936Z,103106.58
2018-09-25T02:01:28.732Z,103106.09
2018-09-25T02:04:02.398Z,103101.94
2018-09-25T02:06:36.104Z,103104.93
2018-09-25T02:09:10.477Z,103103.27
2018-09-25T02:11:44.258Z,103108.35
2018-09-25T02:14:17.908Z,103104.54
2018-09-25T02:16:51.689Z,103102.16
2018-09-25T02:19:25.369Z,103101.66
2018-09-25T02:21:59.177Z,103101.16
2018-09-25T02:24:32.748Z,103097.92
2018-09-25T02:27:06.498Z,103101.02
2018-09-25T02:29:40.148Z,103099.25
2018-09-25T02:32:13.838Z,103098.41
2018-09-25T02:34:47.530Z,103095.78
2018-09-25T02:37:21.053Z,103101.27
2018-09-25T02:39:54.789Z,103098.92
2018-09-25T02:42:28.574Z,103096.52
2018-09-25T02:45:03.019Z,103096.67
2018-09-25T02:47:36.636Z,103091.39
2018-09-25T02:50:10.368Z,103094.42
2018-09-25T02:52:44.028Z,103095.92
2018-09-25T02:55:18.398Z,103087.90
2018-09-25T02:57:52.002Z,103081.73
2018-09-25T03:00:25.632Z,103082.80
2018-09-25T03:02:59.443Z,103089.02
2018-09-25T03:05:33.280Z,103087.87
2018-09-25T03:08:06.980Z,103091.30
2018-09-25T03:10:40.744Z,103085.98
2018-09-25T03:13:14.266Z,103088.19
2018-09-25T03:15:48.000Z,103082.52
2018-09-25T03:18:21.712Z,103079.23
2018-09-25T03:20:55.440Z,103091.80
2018-09-25T03:23:29.216Z,103087.75
2018-09-25T03:26:02.866Z,103094.39
2018-09-25T03:28:36.647Z,103093.31
2018-09-25T03:31:10.884Z,103097.59
2018-09-25T03:33:44.562Z,103098.08
2018-09-25T03:36:18.341Z,103097.82
2018-09-25T03:38:52.065Z,103097.53
2018-09-25T03:41:25.713Z,103096.12
2018-09-25T03:43:59.572Z,103100.37
2018-09-25T03:46:33.305Z,103100.27
2018-09-25T03:49:06.928Z,103091.23
2018-09-25T03:51:40.654Z,103090.80
2018-09-25T03:54:14.333Z,103091.52
2018-09-25T03:56:48.021Z,103095.09
2018-09-25T03:59:21.736Z,103089.77
2018-09-25T04:01:55.276Z,103089.87
2018-09-25T04:04:28.907Z,103083.41
2018-09-25T04:07:02.790Z,103085.28
2018-09-25T04:09:36.525Z,103088.70
2018-09-25T04:12:10.258Z,103085.50
2018-09-25T04:14:44.010Z,103087.84
2018-09-25T04:17:17.734Z,103093.48
2018-09-25T04:19:51.549Z,103089.36
2018-09-25T04:22:25.316Z,103087.34
2018-09-25T04:24:58.781Z,103088.15
2018-09-25T04:27:32.328Z,103092.70
2018-09-25T04:30:06.062Z,103094.01
2018-09-25T04:32:39.837Z,103090.73
2018-09-25T04:35:13.652Z,103097.52
2018-09-25T04:37:47.440Z,103096.64
2018-09-25T04:40:21.180Z,103099.45
2018-09-25T04:42:54.965Z,103106.66
2018-09-25T04:45:28.690Z,103111.14
2018-09-25T04:48:02.449Z,103110.96
2018-09-25T04:50:36.122Z,103113.95
2018-09-25T04:53:09.798Z,103118.19
2018-09-25T04:55:43.249Z,103122.28
2018-09-25T04:58:16.745Z,103121.33
2018-09-25T05:00:50.522Z,103122.32
2018-09-25T05:03:24.176Z,103123.91
2018-09-25T05:05:57.918Z,103129.88
2018-09-25T05:08:31.596Z,103130.36
2018-09-25T05:11:05.128Z,103126.73
2018-09-25T05:13:38.932Z,103135.63
2018-09-25T05:16:12.708Z,103132.91
2018-09-25T05:18:46.444Z,103129.55
2018-09-25T05:21:20.288Z,103134.53
2018-09-25T05:23:54.062Z,103136.29
2018-09-25T05:26:27.972Z,103131.21
2018-09-25T05:29:01.667Z,103133.64
2018-09-25T05:31:35.284Z,103145.84
2018-09-25T05:34:08.970Z,103152.69
2018-09-25T05:36:42.699Z,103156.99
2018-09-25T05:39:16.452Z,103158.55
2018-09-25T05:41:50.090Z,103163.62
2018-09-25T05:44:23.968Z,103167.89
2018-09-25T05:46:57.610Z,103160.03
2018-09-25T05:49:31.456Z,103163.62
2018-09-25T05:52:05.175Z,103155.33
2018-09-25T05:54:38.955Z,103155.41
2018-09-25T05:57:12.652Z,103155.55
2018-09-25T05:59:46.267Z,103158.98
2018-09-25T06:02:19.950Z,103162.02
2018-09-25T06:04:53.655Z,103162.58
2018-09-25T06:07:27.440Z,103170.02
2018-09-25T06:10:01.144Z,103169.53
2018-09-25T06:12:34.921Z,103170.66
2018-09-25T06:15:08.652Z,103169.14
2018-09-25T06:17:42.303Z,103166.67
2018-09-25T06:20:16.052Z,103167.88
2018-09-25T06:22:49.741Z,103174.26
2018-09-25T06:25:23.279Z,103168.47
2018-09-25T06:27:56.964Z,103162.03
2018-09-25T06:30:30.633Z,103163.38
2018-09-25T06:33:04.415Z,103169.94
2018-09-25T06:35:37.980Z,103173.36
2018-09-25T06:38:11.639Z,103171.00
2018-09-25T06:40:45.368Z,103173.93
2018-09-25T06:43:19.175Z,103170.81
2018-09-25T06:45:52.867Z,103173.59
2018-09-25T06:48:26.496Z,103182.76
2018-09-25T06:51:00.317Z,103185.92
2018-09-25T06:53:34.069Z,103190.28
2018-09-25T06:56:07.798Z,103186.09
2018-09-25T06:58:41.560Z,103182.66
2018-09-25T07:01:15.349Z,103184.52
2018-09-25T07:03:49.045Z,103195.87
2018-09-25T07:06:22.870Z,103203.04
2018-09-25T07:08:56.684Z,103205.92
2018-09-25T07:11:30.342Z,103208.28
2018-09-25T07:14:04.031Z,103217.98
2018-09-25T07:16:37.823Z,103220.83
2018-09-25T07:19:11.669Z,103225.27
2018-09-25T07:21:45.308Z,103224.98
2018-09-25T07:24:19.064Z,103226.41
2018-09-25T07:26:52.805Z,103242.86
2018-09-25T07:29:26.563Z,103233.75
2018-09-25T07:32:00.217Z,103236.34
2018-09-25T07:34:33.924Z,103241.24
2018-09-25T07:37:07.731Z,103239.19
2018-09-25T07:39:41.437Z,103245.55
2018-09-25T07:42:15.090Z,103250.35
2018-09-25T07:44:48.866Z,103251.23
2018-09-25T07:47:22.555Z,103257.31
2018-09-25T07:49:56.299Z,103255.45
2018-09-25T07:52:30.059Z,103254.41
2018-09-25T07:55:03.867Z,103255.68
2018-09-25T07:57:37.577Z,103260.58
2018-09-25T08:00:11.438Z,103264.11
2018-09-25T08:02:45.000Z,103264.05
2018-09-25T08:05:18.662Z,103263.94
2018-09-25T08:07:52.435Z,103260.11
2018-09-25T08:10:25.972Z,103269.06
2018-09-25T08:12:59.550Z,103266.22
2018-09-25T08:15:33.421Z,103267.59
2018-09-25T08:18:06.949Z,103266.20
2018-09-25T08:20:40.638Z,103274.27
2018-09-25T08:23:14.409Z,103275.25
2018-09-25T08:25:48.086Z,103278.38
2018-09-25T08:28:21.736Z,103274.84
2018-09-25T08:30:55.353Z,103288.66
2018-09-25T08:33:29.097Z,103288.10
2018-09-25T08:36:03.284Z,103285.14
2018-09-25T08:38:37.099Z,103288.16
2018-09-25T08:41:10.838Z,103283.38
2018-09-25T08:43:44.602Z,103284.55
2018-09-25T08:46:18.218Z,103281.98
2018-09-25T08:48:51.903Z,103282.57
2018-09-25T08:51:25.496Z,103283.64
2018-09-25T08:53:59.285Z,103288.44
2018-09-25T08:56:33.122Z,103287.56
2018-09-25T08:59:06.919Z,103296.31
2018-09-25T09:01:40.614Z,103298.45
2018-09-25T09:04:14.421Z,103298.63
2018-09-25T09:06:48.349Z,103301.68
2018-09-25T09:09:22.110Z,103291.80
2018-09-25T09:11:55.980Z,103291.90
2018-09-25T09:14:29.749Z,103301.11
2018-09-25T09:17:03.583Z,103294.50
2018-09-25T09:19:37.376Z,103296.45
2018-09-25T09:22:11.133Z,103296.05
2018-09-25T09:24:44.875Z,103301.06
2018-09-25T09:27:18.553Z,103293.39
2018-09-25T09:29:52.075Z,103298.16
2018-09-25T09:32:25.740Z,103291.59
2018-09-25T09:34:59.493Z,103295.77
2018-09-25T09:37:33.164Z,103289.38
2018-09-25T09:40:06.980Z,103288.41
2018-09-25T09:42:40.757Z,103287.54
2018-09-25T09:45:14.477Z,103286.87
2018-09-25T09:47:48.309Z,103293.26
2018-09-25T09:50:22.163Z,103290.84
2018-09-25T09:52:55.768Z,103291.19
2018-09-25T09:55:29.544Z,103291.67
2018-09-25T09:58:03.134Z,103283.43
2018-09-25T10:00:36.730Z,103291.33
2018-09-25T10:03:10.420Z,103285.33
2018-09-25T10:05:44.596Z,103294.67
2018-09-25T10:08:18.127Z,103297.41
2018-09-25T10:10:51.616Z,103298.59
2018-09-25T10:13:25.245Z,103298.27
2018-09-25T10:15:59.085Z,103299.58
2018-09-25T10:18:32.646Z,103292.16
2018-09-25T10:21:06.520Z,103292.07
2018-09-25T10:23:40.248Z,103292.87
2018-09-25T10:26:14.282Z,103294.80
2018-09-25T10:28:48.028Z,103291.96
2018-09-25T10:31:21.525Z,103289.41
2018-09-25T10:33:55.153Z,103291.65
2018-09-25T10:36:28.816Z,103280.66
2018-09-25T10:39:02.599Z,103284.81
2018-09-25T10:41:36.265Z,103284.01
2018-09-25T10:44:10.146Z,103287.20
2018-09-25T10:46:43.886Z,103284.25
2018-09-25T10:49:17.621Z,103284.81
2018-09-25T10:51:51.253Z,103278.09
2018-09-25T10:54:24.968Z,103285.48
2018-09-25T10:56:58.544Z,103277.81
2018-09-25T10:59:32.327Z,103282.53
2018-09-25T11:02:06.210Z,103281.41
2018-09-25T11:04:39.838Z,103287.48
2018-09-25T11:07:13.548Z,103279.67
2018-09-25T11:09:47.165Z,103272.56
2018-09-25T11:12:20.943Z,103274.49
2018-09-25T11:14:54.680Z,103264.13
2018-09-25T11:17:28.472Z,103270.33
2018-09-25T11:20:02.301Z,103274.36
2018-09-25T11:22:36.024Z,103276.19
2018-09-25T11:25:09.814Z,103270.44
2018-09-25T11:27:43.569Z,103269.11
2018-09-25T11:30:17.389Z,103264.46
2018-09-25T11:32:51.137Z,103258.15
2018-09-25T11:35:24.845Z,103263.13
2018-09-25T11:37:58.610Z,103255.12
2018-09-25T11:40:32.319Z,103260.87
2018-09-25T11:43:06.109Z,103257.88
2018-09-25T11:45:39.882Z,103255.57
2018-09-25T11:48:13.480Z,103245.32
2018-09-25T11:50:47.044Z,103245.87
2018-09-25T11:53:20.723Z,103242.61
2018-09-25T11:55:54.279Z,103237.63
2018-09-25T11:58:28.023Z,103238.44
2018-09-25T12:01:01.752Z,103247.16
2018-09-25T12:03:35.423Z,103257.70
2018-09-25T12:06:09.187Z,103258.93
2018-09-25T12:08:42.767Z,103248.77
2018-09-25T12:11:16.481Z,103237.47
2018-09-25T12:13:50.510Z,103230.58
2018-09-25T12:16:24.166Z,103225.80
2018-09-25T12:18:57.795Z,103229.84
2018-09-25T12:21:31.587Z,103229.19
2018-09-25T12:24:05.420Z,103234.64
2018-09-25T12:26:39.213Z,103225.72
2018-09-25T12:29:12.897Z,103216.67
2018-09-25T12:31:46.676Z,103227.30
2018-09-25T12:34:21.080Z,103223.71
2018-09-25T12:36:54.853Z,103220.60
2018-09-25T12:39:28.574Z,103213.16
2018-09-25T12:42:02.195Z,103207.64
2018-09-25T12:44:35.941Z,103202.73
2018-09-25T12:47:09.616Z,103194.45
2018-09-25T12:49:43.260Z,103195.59
2018-09-25T12:52:16.853Z,103191.31
2018-09-25T12:54:50.519Z,103192.11
2018-09-25T12:57:24.129Z,103198.73
2018-09-25T12:59:57.737Z,103190.30
2018-09-25T13:02:31.408Z,103179.02
2018-09-25T13:05:05.024Z,103176.22
2018-09-25T13:07:38.811Z,103177.79
2018-09-25T13:10:12.492Z,103163.19
2018-09-25T13:12:46.341Z,103151.61
2018-09-25T13:15:19.967Z,103152.16
2018-09-25T13:17:53.633Z,103156.06
2018-09-25T13:20:27.350Z,103154.74
2018-09-25T13:23:00.996Z,103150.39
2018-09-25T13:25:34.488Z,103154.41
2018-09-25T13:28:08.206Z,103152.23
2018-09-25T13:30:41.790Z,103155.17
2018-09-25T13:33:15.352Z,103149.59
2018-09-25T13:35:49.067Z,103145.06
2018-09-25T13:38:22.701Z,103143.81
2018-09-25T13:40:56.445Z,103138.94
2018-09-25T13:43:29.929Z,103127.81
2018-09-25T13:46:03.645Z,103122.55
2018-09-25T13:48:37.353Z,103121.91
2018-09-25T13:51:10.973Z,103120.86
2018-09-25T13:53:44.675Z,103117.27
2018-09-25T13:56:18.153Z,103112.94
2018-09-25T13:58:51.909Z,103108.76
2018-09-25T14:01:25.556Z,103104.61
2018-09-25T14:03:59.288Z,103107.32
2018-09-25T14:06:32.977Z,103099.36
2018-09-25T14:09:06.776Z,103097.76
2018-09-25T14:11:40.478Z,103098.93
2018-09-25T14:14:14.275Z,103097.55
2018-09-25T14:16:47.788Z,103094.57
2018-09-25T14:19:21.417Z,103089.93
2018-09-25T14:21:55.191Z,103089.41
2018-09-25T14:24:28.937Z,103082.45
2018-09-25T14:27:02.567Z,103087.13
2018-09-25T14:29:36.243Z,103092.86
2018-09-25T14:32:09.953Z,103081.39
2018-09-25T14:34:43.762Z,103083.97
2018-09-25T14:37:17.422Z,103082.73
2018-09-25T14:39:51.250Z,103081.30
2018-09-25T14:42:25.036Z,103075.80
2018-09-25T14:44:58.738Z,103070.84
2018-09-25T14:47:32.450Z,103069.19
2018-09-25T14:50:06.097Z,103067.50
2018-09-25T14:52:39.787Z,103057.21
2018-09-25T14:55:13.617Z,103050.06
2018-09-25T14:57:47.283Z,103047.83
2018-09-25T15:00:21.065Z,103048.77
2018-09-25T15:02:54.642Z,103039.42
2018-09-25T15:05:28.440Z,103038.50
2018-09-25T15:08:02.108Z,103040.02
2018-09-25T15:10:35.689Z,103039.30
2018-09-25T15:13:09.277Z,103048.20
2018-09-25T15:15:42.928Z,103044.32
2018-09-25T15:18:16.559Z,103036.03
2018-09-25T15:20:50.283Z,103041.30
2018-09-25T15:23:24.109Z,103035.42
2018-09-25T15:25:57.724Z,103035.42
2018-09-25T15:28:31.470Z,103032.77
2018-09-25T15:31:05.200Z,103021.20
2018-09-25T15:33:38.962Z,103023.50
2018-09-25T15:36:12.706Z,103031.69
2018-09-25T15:38:46.489Z,103023.25
2018-09-25T15:41:20.206Z,103023.77
2018-09-25T15:43:53.952Z,103027.30
2018-09-25T15:46:27.777Z,103022.91
2018-09-25T15:49:01.288Z,103019.17
2018-09-25T15:51:35.130Z,103025.27
2018-09-25T15:54:08.788Z,103015.16
2018-09-25T15:56:42.501Z,103010.58
2018-09-25T15:59:16.285Z,103009.52
2018-09-25T16:01:50.013Z,103003.33
2018-09-25T16:04:23.636Z,103002.39
2018-09-25T16:06:57.377Z,103002.78
2018-09-25T16:09:31.151Z,103002.65
2018-09-25T16:12:04.949Z,103012.00
2018-09-25T16:14:38.658Z,103010.86
2018-09-25T16:17:12.550Z,103017.29
2018-09-25T16:19:46.179Z,103019.50
2018-09-25T16:22:19.830Z,103018.72
2018-09-25T16:24:53.581Z,103029.47
2018-09-25T16:27:27.283Z,103031.52
2018-09-25T16:30:01.013Z,103032.73
2018-09-25T16:32:34.840Z,103032.16
2018-09-25T16:35:08.352Z,103030.95
2018-09-25T16:37:42.057Z,103034.34
2018-09-25T16:40:15.841Z,103030.97
2018-09-25T16:42:49.557Z,103042.08
2018-09-25T16:45:23.100Z,103036.05
2018-09-25T16:47:56.787Z,103035.48
2018-09-25T16:50:30.602Z,103039.12
2018-09-25T16:53:11.100Z,103031.64
2018-09-25T16:55:44.836Z,103033.61
2018-09-25T16:58:18.635Z,103031.23
2018-09-25T17:00:52.398Z,103031.52
2018-09-25T17:03:26.202Z,103036.05
2018-09-25T17:05:59.991Z,103044.09
2018-09-25T17:08:33.699Z,103037.89
2018-09-25T17:11:07.320Z,103038.89
2018-09-25T17:13:41.046Z,103040.39
2018-09-25T17:16:14.749Z,103041.78
2018-09-25T17:18:48.339Z,103047.94
2018-09-25T17:21:22.137Z,103050.78
2018-09-25T17:23:55.853Z,103045.28
2018-09-25T17:26:29.689Z,103058.32
2018-09-25T17:29:03.343Z,103056.77
2018-09-25T17:31:37.046Z,103057.75
2018-09-25T17:34:10.825Z,103054.92
2018-09-25T17:36:44.645Z,103062.74
2018-09-25T17:39:18.242Z,103056.84
2018-09-25T17:41:51.901Z,103050.63
2018-09-25T17:44:25.685Z,103056.42
2018-09-25T17:46:59.298Z,103058.45
2018-09-25T17:49:32.910Z,103067.65
2018-09-25T17:52:06.489Z,103069.67
2018-09-25T17:54:40.073Z,103069.45
2018-09-25T17:57:13.845Z,103075.25
2018-09-25T17:59:47.652Z,103067.17
2018-09-25T18:02:21.254Z,103059.12
2018-09-25T18:04:54.853Z,103059.80
2018-09-25T18:07:28.594Z,103065.55
2018-09-25T18:10:02.257Z,103058.83
2018-09-25T18:12:35.945Z,103066.03
2018-09-25T18:15:09.618Z,103065.48
2018-09-25T18:17:43.242Z,103066.69
2018-09-25T18:20:16.899Z,103065.34
2018-09-25T18:22:50.546Z,103064.47
2018-09-25T18:25:24.129Z,103064.25
2018-09-25T18:27:57.895Z,103061.76
2018-09-25T18:30:31.523Z,103058.58
2018-09-25T18:33:05.151Z,103071.38
2018-09-25T18:35:39.014Z,103078.76
2018-09-25T18:38:12.721Z,103080.44
2018-09-25T18:40:46.397Z,103078.75
2018-09-25T18:43:20.136Z,103078.05
2018-09-25T18:45:53.765Z,103079.17
2018-09-25T18:48:27.508Z,103078.84
2018-09-25T18:51:01.283Z,103086.69
2018-09-25T18:53:34.876Z,103085.66
2018-09-25T18:56:08.616Z,103085.23
2018-09-25T18:58:42.461Z,103082.67
2018-09-25T19:01:16.061Z,103092.75
2018-09-25T19:03:49.917Z,103088.61
2018-09-25T19:06:23.559Z,103098.76
2018-09-25T19:08:57.140Z,103097.80
2018-09-25T19:11:44.789Z,102827.09
2018-09-25T19:14:18.587Z,103092.50
2018-09-25T19:16:52.253Z,103087.23
2018-09-25T19:19:25.912Z,103087.07
2018-09-25T19:21:59.661Z,103082.91
2018-09-25T19:24:33.303Z,103077.32
2018-09-25T19:27:06.968Z,103075.77
2018-09-25T19:29:40.613Z,103072.02
2018-09-25T19:32:14.387Z,103072.81
2018-09-25T19:34:48.046Z,103077.69
2018-09-25T19:37:21.736Z,103086.23
2018-09-25T19:39:55.417Z,103085.28
2018-09-25T19:42:29.119Z,103085.41
2018-09-25T19:45:02.786Z,103071.10
2018-09-25T19:47:36.461Z,103066.87
2018-09-25T19:50:10.292Z,103073.34
2018-09-25T19:52:44.076Z,103068.62
2018-09-25T19:55:17.790Z,103070.22
2018-09-25T19:57:51.580Z,103075.34
2018-09-25T20:00:25.240Z,103073.26
2018-09-25T20:02:58.934Z,103076.77
2018-09-25T20:05:32.708Z,103064.91
2018-09-25T20:08:06.481Z,103063.14
2018-09-25T20:10:40.248Z,103054.44
2018-09-25T20:13:13.909Z,103051.28
2018-09-25T20:15:47.745Z,103040.59
2018-09-25T20:18:21.589Z,103032.44
2018-09-25T20:20:55.376Z,103029.97
2018-09-25T20:23:29.048Z,103035.95
2018-09-25T20:26:02.825Z,103042.70
2018-09-25T20:28:36.447Z,103046.97
2018-09-25T20:31:10.003Z,103052.36
2018-09-25T20:33:43.808Z,103059.47
2018-09-25T20:36:17.617Z,103061.55
2018-09-25T20:38:51.385Z,103057.55
2018-09-25T20:41:25.105Z,103054.28
2018-09-25T20:43:58.792Z,103052.52
2018-09-25T20:46:32.493Z,103047.65
2018-09-25T20:49:06.062Z,103038.51
2018-09-25T20:51:39.899Z,103040.90
2018-09-25T20:54:13.674Z,103038.98
2018-09-25T20:56:47.465Z,103033.23
2018-09-25T20:59:21.160Z,103037.63
2018-09-25T21:01:54.804Z,103041.93
2018-09-25T21:04:28.539Z,103042.33
2018-09-25T21:07:02.241Z,103032.11
2018-09-25T21:09:35.883Z,103015.34
2018-09-25T21:12:09.579Z,103009.48
2018-09-25T21:14:43.371Z,102999.30
2018-09-25T21:17:17.065Z,102987.24
2018-09-25T21:19:50.687Z,102998.09
2018-09-25T21:22:24.432Z,103008.98
2018-09-25T21:24:58.274Z,103014.41
2018-09-25T21:27:32.135Z,103025.58
2018-09-25T21:30:05.876Z,103048.06
2018-09-25T21:32:39.551Z,103048.80
2018-09-25T21:35:13.259Z,103045.36
2018-09-25T21:37:47.100Z,103038.95
2018-09-25T21:40:20.837Z,103036.42
2018-09-25T21:42:54.424Z,103042.80
2018-09-25T21:45:28.123Z,103034.39
2018-09-25T21:48:01.892Z,103021.40
2018-09-25T21:50:35.596Z,103008.47
2018-09-25T21:53:09.172Z,103003.24
2018-09-25T21:55:47.302Z,102998.14
2018-09-25T21:58:21.013Z,102983.51
2018-09-25T22:00:54.556Z,102975.94
2018-09-25T22:03:28.278Z,102981.12
2018-09-25T22:06:01.988Z,102979.31
2018-09-25T22:08:35.684Z,102979.94
2018-09-25T22:11:09.390Z,102973.39
2018-09-25T22:13:43.057Z,102963.98
2018-09-25T22:16:16.786Z,102960.46
2018-09-25T22:18:50.273Z,102950.25
2018-09-25T22:21:23.965Z,102949.63
2018-09-25T22:23:57.584Z,102960.15
2018-09-25T22:26:31.242Z,102958.70
2018-09-25T22:29:04.910Z,102951.47
2018-09-25T22:31:38.613Z,102948.36
2018-09-25T22:34:12.170Z,102951.38
2018-09-25T22:36:45.889Z,102945.31
2018-09-25T22:39:19.588Z,102943.87
2018-09-25T22:41:53.339Z,102938.59
2018-09-25T22:44:27.004Z,102939.88
2018-09-25T22:47:00.702Z,102943.62
2018-09-25T22:49:34.319Z,102941.08
2018-09-25T22:52:07.883Z,102944.51
2018-09-25T22:54:41.691Z,102937.34
2018-09-25T22:57:15.420Z,102935.98
2018-09-25T22:59:49.112Z,102928.95
2018-09-25T23:02:22.800Z,102933.08
2018-09-25T23:04:56.618Z,102928.30
2018-09-25T23:07:30.327Z,102930.36
2018-09-25T23:10:03.990Z,102924.87
2018-09-25T23:12:37.600Z,102913.72
2018-09-25T23:15:11.281Z,102913.63
2018-09-25T23:17:44.941Z,102914.80
2018-09-25T23:20:18.685Z,102916.75
2018-09-25T23:22:52.356Z,102911.92
2018-09-25T23:25:26.072Z,102918.16
2018-09-25T23:27:59.790Z,102914.33
2018-09-25T23:30:33.481Z,102916.05
2018-09-25T23:33:07.277Z,102914.77
2018-09-25T23:35:40.951Z,102917.91
2018-09-25T23:38:14.485Z,102918.61
2018-09-25T23:41:46.795Z,102928.23
2018-09-25T23:44:54.720Z,102923.44
2018-09-25T23:47:28.402Z,102931.27
2018-09-25T23:50:02.221Z,102936.61
2018-09-25T23:52:36.014Z,102943.47
2018-09-25T23:55:24.373Z,102942.98
2018-09-25T23:58:04.732Z,102953.45
